Startpagina
METAR-TAF:

METAR-TAF

Vliegvelden :

Luchthaven Sibiu

Sibiu, Roemenië

breedte: 45-48N, lengte: 024-09E, hoogte: 443 m

Actueel weer

Dit bericht is 23 minuten geleden gemaakt, om 14:00 UTC
Wind 3 kt uit het zuidoosten, variërend tussen het noordoosten en het zuiden
Temperatuur 29°C
Vochtigheid 43%
Druk 1018 hPa
Zicht 10 km of meer
Weinig wolken op 5300 ft, Stapelwolken.

METAR: LRSB 181400Z 13003KT 050V170 9999 FEW053TCU 29/15 Q1018

Tijdstip: 17:23 (14:23 UTC)

Verwachting

Dit bericht is 3 uur en het 23 minuten geleden gemaakt, om 11:00 UTC
Verwachting geldig van 18 om 12 UTC tot 19 om 12 UTC
Wind 4 kt uit variabele richting
Zicht 10 km of meer
Weinig wolken op 4500 ft
Tijdelijke
van 18 om 12 UTC tot 18 om 17 UTC
Wind 10 kt uit het noorden
Verspreide wolken op 4500 ft, Cumulonimbus.
Kans 30% :
Tijdelijke
van 18 om 13 UTC tot 18 om 17 UTC
onweer, lichte regen

TAF: LRSB 181100Z 1812/1912 VRB04KT 9999 FEW045 TEMPO 1812/1817 36010KT SCT045CB PROB30 TEMPO 1813/1817 -TSRA

Waarnemingen en weersverwachtingen van meer dan 4000 vliegvelden (METAR en TAF).

De beschikbare stations zijn de gele en rode punten op de kaart.

Ga met uw muis naar het station om de naam te zien.

Klik dan om waarnemingen en weersverwachtingen te zien.

kaart wijzigen: klik op de groene knoppen met een zwart kruis om in te zoomen, op de groene knop met een streepje om uit te zoomen of op de groene pijlen voor aangrenzende kaarten.


METAR-TAF: